KILN/ILN METAR and TAF weather

Enter ICAO airport designator
Station Type Date Time Source
KILN METAR 2019/04/18 09:54 UTC NOAA

KILN 180954Z AUTO 21010KT 10SM BKN039 OVC055 18/08 A2977 RMK AO2 SLP076 T01780083


Station Type Date Time Source
KILN Decoded METAR 2019/04/18 09:54 UTC NOAA

WILMINGTON INDUSTRIAL AIRPORT , OH, United States (KILN) 39-26N 083-47W 332M
Apr 18, 2019 - 05:54 AM EDT / 2019.04.18 0954 UTC
Wind: from the SSW (210 degrees) at 12 MPH (10 KT):0
Visibility: 10 mile(s):0
Sky conditions: overcast
Temperature: 64.0 F (17.8 C)
Dew Point: 46.9 F (8.3 C)
Relative Humidity: 53%
Pressure (altimeter): 29.77 in. Hg (1008 hPa)
ob: KILN 180954Z AUTO 21010KT 10SM BKN039 OVC055 18/08 A2977 RMK AO2 SLP076 T01780083
cycle: 10

Station Type Date Time Source
KILN TAF 2019/04/18 06:54 UTC NOAA

TAF KILN 180551Z 1806/1906 20010KT P6SM SCT070
FM180800 20010KT P6SM BKN050
FM181200 20014G22KT P6SM BKN120 OVC200
FM181500 21020G30KT P6SM BKN120 OVC200
FM182300 20014KT P6SM SCT060 BKN250
FM190300 19006KT P6SM -SHRA OVC060

Example: see airport list